sensor_id;sensor_type;location;lat;lon;timestamp;P1;durP1;ratioP1;P2;durP2;ratioP2
19869;SDS011;10097;50.862;4.696;2023-02-04T00:00:47;21.30;;;10.13;;
19869;SDS011;10097;50.862;4.696;2023-02-04T00:03:13;23.53;;;10.83;;
19869;SDS011;10097;50.862;4.696;2023-02-04T00:05:40;21.57;;;10.10;;
19869;SDS011;10097;50.862;4.696;2023-02-04T00:08:06;19.97;;;10.07;;
19869;SDS011;10097;50.862;4.696;2023-02-04T00:10:32;21.87;;;10.67;;
19869;SDS011;10097;50.862;4.696;2023-02-04T00:12:57;27.00;;;11.73;;
19869;SDS011;10097;50.862;4.696;2023-02-04T00:15:23;20.17;;;9.70;;
19869;SDS011;10097;50.862;4.696;2023-02-04T00:17:49;23.17;;;10.93;;
19869;SDS011;10097;50.862;4.696;2023-02-04T00:20:14;22.30;;;11.63;;
19869;SDS011;10097;50.862;4.696;2023-02-04T00:22:40;21.03;;;10.90;;
19869;SDS011;10097;50.862;4.696;2023-02-04T00:25:07;24.53;;;11.33;;
19869;SDS011;10097;50.862;4.696;2023-02-04T00:27:33;23.37;;;11.03;;
19869;SDS011;10097;50.862;4.696;2023-02-04T00:29:59;23.50;;;11.17;;
19869;SDS011;10097;50.862;4.696;2023-02-04T00:32:24;26.27;;;11.70;;
19869;SDS011;10097;50.862;4.696;2023-02-04T00:34:50;23.80;;;10.60;;
19869;SDS011;10097;50.862;4.696;2023-02-04T00:37:17;23.83;;;11.80;;
19869;SDS011;10097;50.862;4.696;2023-02-04T00:39:43;25.53;;;10.60;;
19869;SDS011;10097;50.862;4.696;2023-02-04T00:42:08;25.07;;;12.17;;
19869;SDS011;10097;50.862;4.696;2023-02-04T00:44:34;24.77;;;12.27;;
19869;SDS011;10097;50.862;4.696;2023-02-04T00:47:01;24.40;;;10.73;;
19869;SDS011;10097;50.862;4.696;2023-02-04T00:49:27;25.30;;;12.03;;
19869;SDS011;10097;50.862;4.696;2023-02-04T00:51:53;26.23;;;11.10;;
19869;SDS011;10097;50.862;4.696;2023-02-04T00:54:18;24.00;;;11.40;;
19869;SDS011;10097;50.862;4.696;2023-02-04T00:56:44;21.60;;;11.27;;
19869;SDS011;10097;50.862;4.696;2023-02-04T00:59:10;24.60;;;12.63;;
19869;SDS011;10097;50.862;4.696;2023-02-04T01:01:35;26.07;;;12.53;;
19869;SDS011;10097;50.862;4.696;2023-02-04T01:04:01;23.47;;;11.07;;
19869;SDS011;10097;50.862;4.696;2023-02-04T01:06:27;22.17;;;11.47;;
19869;SDS011;10097;50.862;4.696;2023-02-04T01:08:53;27.07;;;12.20;;
19869;SDS011;10097;50.862;4.696;2023-02-04T01:11:18;21.43;;;12.00;;
19869;SDS011;10097;50.862;4.696;2023-02-04T01:13:44;28.00;;;12.53;;
19869;SDS011;10097;50.862;4.696;2023-02-04T01:16:10;26.43;;;14.10;;
19869;SDS011;10097;50.862;4.696;2023-02-04T01:18:36;28.93;;;14.03;;
19869;SDS011;10097;50.862;4.696;2023-02-04T01:21:02;25.40;;;12.93;;
19869;SDS011;10097;50.862;4.696;2023-02-04T01:23:27;28.83;;;12.87;;
19869;SDS011;10097;50.862;4.696;2023-02-04T01:25:53;29.23;;;13.40;;
19869;SDS011;10097;50.862;4.696;2023-02-04T01:28:19;31.17;;;13.63;;
19869;SDS011;10097;50.862;4.696;2023-02-04T01:30:44;31.90;;;13.10;;
19869;SDS011;10097;50.862;4.696;2023-02-04T01:33:10;28.90;;;12.50;;
19869;SDS011;10097;50.862;4.696;2023-02-04T01:35:35;26.10;;;14.10;;
19869;SDS011;10097;50.862;4.696;2023-02-04T01:38:01;29.37;;;13.60;;
19869;SDS011;10097;50.862;4.696;2023-02-04T01:40:27;27.10;;;14.30;;
19869;SDS011;10097;50.862;4.696;2023-02-04T01:42:52;28.20;;;13.20;;
19869;SDS011;10097;50.862;4.696;2023-02-04T01:45:18;28.97;;;13.80;;
19869;SDS011;10097;50.862;4.696;2023-02-04T01:47:44;29.03;;;13.63;;
19869;SDS011;10097;50.862;4.696;2023-02-04T01:50:12;26.33;;;13.30;;
19869;SDS011;10097;50.862;4.696;2023-02-04T01:52:39;26.83;;;14.33;;
19869;SDS011;10097;50.862;4.696;2023-02-04T01:55:10;28.90;;;14.37;;
19869;SDS011;10097;50.862;4.696;2023-02-04T01:57:41;23.93;;;12.77;;
19869;SDS011;10097;50.862;4.696;2023-02-04T02:00:13;23.33;;;12.13;;
19869;SDS011;10097;50.862;4.696;2023-02-04T02:02:43;19.87;;;9.63;;
19869;SDS011;10097;50.862;4.696;2023-02-04T02:05:18;18.60;;;9.40;;
19869;SDS011;10097;50.862;4.696;2023-02-04T02:07:47;16.03;;;7.30;;
19869;SDS011;10097;50.862;4.696;2023-02-04T02:10:15;17.80;;;8.50;;
19869;SDS011;10097;50.862;4.696;2023-02-04T02:12:42;20.23;;;8.13;;
19869;SDS011;10097;50.862;4.696;2023-02-04T02:15:09;14.67;;;7.43;;
19869;SDS011;10097;50.862;4.696;2023-02-04T02:17:36;13.70;;;6.40;;
19869;SDS011;10097;50.862;4.696;2023-02-04T02:20:05;14.77;;;6.50;;
19869;SDS011;10097;50.862;4.696;2023-02-04T02:25:31;16.73;;;5.67;;
19869;SDS011;10097;50.862;4.696;2023-02-04T02:27:57;13.00;;;5.40;;
19869;SDS011;10097;50.862;4.696;2023-02-04T02:30:24;12.47;;;3.97;;
19869;SDS011;10097;50.862;4.696;2023-02-04T02:32:52;13.30;;;3.87;;
19869;SDS011;10097;50.862;4.696;2023-02-04T02:35:19;13.07;;;3.67;;
19869;SDS011;10097;50.862;4.696;2023-02-04T02:37:45;11.87;;;4.00;;
19869;SDS011;10097;50.862;4.696;2023-02-04T02:40:11;15.10;;;4.33;;
19869;SDS011;10097;50.862;4.696;2023-02-04T02:42:37;11.10;;;3.90;;
19869;SDS011;10097;50.862;4.696;2023-02-04T02:45:07;10.77;;;3.50;;
19869;SDS011;10097;50.862;4.696;2023-02-04T02:47:44;8.57;;;3.00;;
19869;SDS011;10097;50.862;4.696;2023-02-04T02:50:10;15.27;;;3.73;;
19869;SDS011;10097;50.862;4.696;2023-02-04T02:52:41;15.63;;;4.00;;
19869;SDS011;10097;50.862;4.696;2023-02-04T02:55:11;15.37;;;4.43;;
19869;SDS011;10097;50.862;4.696;2023-02-04T02:57:39;10.93;;;3.60;;
19869;SDS011;10097;50.862;4.696;2023-02-04T03:00:12;12.53;;;3.83;;
19869;SDS011;10097;50.862;4.696;2023-02-04T03:02:41;11.97;;;4.30;;
19869;SDS011;10097;50.862;4.696;2023-02-04T03:05:08;12.37;;;4.40;;
19869;SDS011;10097;50.862;4.696;2023-02-04T03:07:35;13.57;;;4.97;;
19869;SDS011;10097;50.862;4.696;2023-02-04T03:10:02;14.53;;;5.10;;
19869;SDS011;10097;50.862;4.696;2023-02-04T03:12:28;15.13;;;4.77;;
19869;SDS011;10097;50.862;4.696;2023-02-04T03:14:54;12.40;;;4.20;;
19869;SDS011;10097;50.862;4.696;2023-02-04T03:17:20;13.00;;;3.97;;
19869;SDS011;10097;50.862;4.696;2023-02-04T03:19:46;16.33;;;4.30;;
19869;SDS011;10097;50.862;4.696;2023-02-04T03:22:13;13.17;;;3.63;;
19869;SDS011;10097;50.862;4.696;2023-02-04T03:24:38;15.20;;;4.37;;
19869;SDS011;10097;50.862;4.696;2023-02-04T03:27:05;10.57;;;3.40;;
19869;SDS011;10097;50.862;4.696;2023-02-04T03:29:31;15.40;;;3.47;;
19869;SDS011;10097;50.862;4.696;2023-02-04T03:31:57;10.47;;;3.47;;
19869;SDS011;10097;50.862;4.696;2023-02-04T03:34:24;14.07;;;3.50;;
19869;SDS011;10097;50.862;4.696;2023-02-04T03:36:50;9.73;;;3.37;;
19869;SDS011;10097;50.862;4.696;2023-02-04T03:39:15;11.50;;;3.87;;
19869;SDS011;10097;50.862;4.696;2023-02-04T03:41:41;11.33;;;3.63;;
19869;SDS011;10097;50.862;4.696;2023-02-04T03:44:07;9.80;;;3.30;;
19869;SDS011;10097;50.862;4.696;2023-02-04T03:46:32;12.73;;;3.80;;
19869;SDS011;10097;50.862;4.696;2023-02-04T03:48:58;19.00;;;4.07;;
19869;SDS011;10097;50.862;4.696;2023-02-04T03:51:23;14.90;;;4.70;;
19869;SDS011;10097;50.862;4.696;2023-02-04T03:53:49;13.27;;;3.67;;
19869;SDS011;10097;50.862;4.696;2023-02-04T03:56:15;12.53;;;4.23;;
19869;SDS011;10097;50.862;4.696;2023-02-04T03:58:41;12.47;;;4.03;;
19869;SDS011;10097;50.862;4.696;2023-02-04T04:01:06;12.47;;;4.13;;
19869;SDS011;10097;50.862;4.696;2023-02-04T04:03:32;11.33;;;4.03;;
19869;SDS011;10097;50.862;4.696;2023-02-04T04:05:58;12.60;;;4.30;;
19869;SDS011;10097;50.862;4.696;2023-02-04T04:08:23;12.50;;;4.40;;
19869;SDS011;10097;50.862;4.696;2023-02-04T04:10:49;12.80;;;4.93;;
19869;SDS011;10097;50.862;4.696;2023-02-04T04:13:15;11.17;;;4.53;;
19869;SDS011;10097;50.862;4.696;2023-02-04T04:15:41;15.37;;;5.30;;
19869;SDS011;10097;50.862;4.696;2023-02-04T04:18:06;14.67;;;4.90;;
19869;SDS011;10097;50.862;4.696;2023-02-04T04:20:32;15.93;;;5.10;;
19869;SDS011;10097;50.862;4.696;2023-02-04T04:22:57;12.20;;;4.80;;
19869;SDS011;10097;50.862;4.696;2023-02-04T04:25:23;13.70;;;4.67;;
19869;SDS011;10097;50.862;4.696;2023-02-04T04:27:49;16.57;;;5.70;;
19869;SDS011;10097;50.862;4.696;2023-02-04T04:30:15;11.83;;;4.23;;
19869;SDS011;10097;50.862;4.696;2023-02-04T04:32:40;12.90;;;4.97;;
19869;SDS011;10097;50.862;4.696;2023-02-04T04:35:06;12.73;;;5.03;;
19869;SDS011;10097;50.862;4.696;2023-02-04T04:37:32;13.80;;;4.83;;
19869;SDS011;10097;50.862;4.696;2023-02-04T04:39:59;12.97;;;5.30;;
19869;SDS011;10097;50.862;4.696;2023-02-04T04:42:25;14.67;;;5.43;;
19869;SDS011;10097;50.862;4.696;2023-02-04T04:44:51;16.93;;;5.80;;
19869;SDS011;10097;50.862;4.696;2023-02-04T04:47:16;14.73;;;5.17;;
19869;SDS011;10097;50.862;4.696;2023-02-04T04:49:42;16.83;;;5.90;;
19869;SDS011;10097;50.862;4.696;2023-02-04T04:52:08;15.10;;;6.13;;
19869;SDS011;10097;50.862;4.696;2023-02-04T04:54:34;14.97;;;6.83;;
19869;SDS011;10097;50.862;4.696;2023-02-04T04:57:00;17.30;;;6.40;;
19869;SDS011;10097;50.862;4.696;2023-02-04T04:59:26;20.67;;;7.33;;
19869;SDS011;10097;50.862;4.696;2023-02-04T05:01:52;24.37;;;8.47;;
19869;SDS011;10097;50.862;4.696;2023-02-04T05:04:17;20.57;;;7.93;;
19869;SDS011;10097;50.862;4.696;2023-02-04T05:06:43;18.53;;;6.97;;
19869;SDS011;10097;50.862;4.696;2023-02-04T05:09:09;20.60;;;6.80;;
19869;SDS011;10097;50.862;4.696;2023-02-04T05:11:35;22.60;;;7.80;;
19869;SDS011;10097;50.862;4.696;2023-02-04T05:14:00;21.90;;;8.23;;
19869;SDS011;10097;50.862;4.696;2023-02-04T05:16:26;20.33;;;8.23;;
19869;SDS011;10097;50.862;4.696;2023-02-04T05:18:52;22.33;;;7.83;;
19869;SDS011;10097;50.862;4.696;2023-02-04T05:21:17;21.60;;;8.30;;
19869;SDS011;10097;50.862;4.696;2023-02-04T05:23:43;19.67;;;6.87;;
19869;SDS011;10097;50.862;4.696;2023-02-04T05:26:08;19.77;;;7.53;;
19869;SDS011;10097;50.862;4.696;2023-02-04T05:28:34;19.60;;;8.07;;
19869;SDS011;10097;50.862;4.696;2023-02-04T05:31:00;22.23;;;7.47;;
19869;SDS011;10097;50.862;4.696;2023-02-04T05:33:25;17.80;;;8.13;;
19869;SDS011;10097;50.862;4.696;2023-02-04T05:35:51;20.53;;;7.40;;
19869;SDS011;10097;50.862;4.696;2023-02-04T05:38:17;20.63;;;7.53;;
19869;SDS011;10097;50.862;4.696;2023-02-04T05:40:42;18.87;;;7.63;;
19869;SDS011;10097;50.862;4.696;2023-02-04T05:43:08;23.23;;;8.37;;
19869;SDS011;10097;50.862;4.696;2023-02-04T05:45:34;20.07;;;7.60;;
19869;SDS011;10097;50.862;4.696;2023-02-04T05:47:59;20.37;;;8.10;;
19869;SDS011;10097;50.862;4.696;2023-02-04T05:50:25;21.23;;;8.13;;
19869;SDS011;10097;50.862;4.696;2023-02-04T05:52:51;22.77;;;8.87;;
19869;SDS011;10097;50.862;4.696;2023-02-04T05:55:16;19.50;;;7.83;;
19869;SDS011;10097;50.862;4.696;2023-02-04T05:57:42;22.03;;;8.50;;
19869;SDS011;10097;50.862;4.696;2023-02-04T06:00:08;23.27;;;8.40;;
19869;SDS011;10097;50.862;4.696;2023-02-04T06:02:35;22.80;;;8.00;;
19869;SDS011;10097;50.862;4.696;2023-02-04T06:05:01;22.93;;;7.87;;
19869;SDS011;10097;50.862;4.696;2023-02-04T06:07:26;23.03;;;8.27;;
19869;SDS011;10097;50.862;4.696;2023-02-04T06:09:52;19.10;;;8.00;;
19869;SDS011;10097;50.862;4.696;2023-02-04T06:12:17;19.73;;;8.50;;
19869;SDS011;10097;50.862;4.696;2023-02-04T06:14:43;19.87;;;8.10;;
19869;SDS011;10097;50.862;4.696;2023-02-04T06:17:09;21.33;;;8.47;;
19869;SDS011;10097;50.862;4.696;2023-02-04T06:19:34;21.00;;;7.60;;
19869;SDS011;10097;50.862;4.696;2023-02-04T06:22:00;21.37;;;8.10;;
19869;SDS011;10097;50.862;4.696;2023-02-04T06:24:25;20.20;;;7.50;;
19869;SDS011;10097;50.862;4.696;2023-02-04T06:26:51;22.43;;;7.87;;
19869;SDS011;10097;50.862;4.696;2023-02-04T06:29:17;21.70;;;7.50;;
19869;SDS011;10097;50.862;4.696;2023-02-04T06:31:42;21.07;;;7.73;;
19869;SDS011;10097;50.862;4.696;2023-02-04T06:34:08;22.50;;;8.00;;
19869;SDS011;10097;50.862;4.696;2023-02-04T06:36:34;17.00;;;7.50;;
19869;SDS011;10097;50.862;4.696;2023-02-04T06:39:00;20.80;;;8.17;;
19869;SDS011;10097;50.862;4.696;2023-02-04T06:41:25;24.00;;;8.37;;
19869;SDS011;10097;50.862;4.696;2023-02-04T06:43:51;25.03;;;9.07;;
19869;SDS011;10097;50.862;4.696;2023-02-04T06:46:16;26.10;;;8.10;;
19869;SDS011;10097;50.862;4.696;2023-02-04T06:48:42;23.53;;;8.53;;
19869;SDS011;10097;50.862;4.696;2023-02-04T06:51:08;19.97;;;8.03;;
19869;SDS011;10097;50.862;4.696;2023-02-04T06:53:33;21.30;;;7.63;;
19869;SDS011;10097;50.862;4.696;2023-02-04T06:55:59;21.30;;;8.53;;
19869;SDS011;10097;50.862;4.696;2023-02-04T06:58:24;22.60;;;8.50;;
19869;SDS011;10097;50.862;4.696;2023-02-04T07:00:50;22.90;;;8.33;;
19869;SDS011;10097;50.862;4.696;2023-02-04T07:03:16;22.93;;;8.73;;
19869;SDS011;10097;50.862;4.696;2023-02-04T07:05:41;22.70;;;8.87;;
19869;SDS011;10097;50.862;4.696;2023-02-04T07:08:07;22.00;;;9.10;;
19869;SDS011;10097;50.862;4.696;2023-02-04T07:10:33;24.37;;;9.03;;
19869;SDS011;10097;50.862;4.696;2023-02-04T07:12:58;22.60;;;9.70;;
19869;SDS011;10097;50.862;4.696;2023-02-04T07:15:24;22.80;;;9.57;;
19869;SDS011;10097;50.862;4.696;2023-02-04T07:17:49;21.23;;;8.90;;
19869;SDS011;10097;50.862;4.696;2023-02-04T07:20:15;24.60;;;9.57;;
19869;SDS011;10097;50.862;4.696;2023-02-04T07:22:41;29.83;;;9.70;;
19869;SDS011;10097;50.862;4.696;2023-02-04T07:25:07;24.47;;;9.17;;
19869;SDS011;10097;50.862;4.696;2023-02-04T07:27:34;26.57;;;10.67;;
19869;SDS011;10097;50.862;4.696;2023-02-04T07:29:59;24.30;;;9.50;;
19869;SDS011;10097;50.862;4.696;2023-02-04T07:32:25;26.70;;;9.37;;
19869;SDS011;10097;50.862;4.696;2023-02-04T07:34:56;33.70;;;11.53;;
19869;SDS011;10097;50.862;4.696;2023-02-04T07:37:22;32.50;;;11.33;;
19869;SDS011;10097;50.862;4.696;2023-02-04T07:39:47;27.83;;;11.83;;
19869;SDS011;10097;50.862;4.696;2023-02-04T07:42:13;29.50;;;11.83;;
19869;SDS011;10097;50.862;4.696;2023-02-04T07:44:39;27.43;;;11.40;;
19869;SDS011;10097;50.862;4.696;2023-02-04T07:47:04;34.50;;;12.70;;
19869;SDS011;10097;50.862;4.696;2023-02-04T07:49:30;35.03;;;12.37;;
19869;SDS011;10097;50.862;4.696;2023-02-04T07:51:55;34.10;;;12.50;;
19869;SDS011;10097;50.862;4.696;2023-02-04T07:54:22;33.63;;;12.77;;
19869;SDS011;10097;50.862;4.696;2023-02-04T07:56:47;37.13;;;13.10;;
19869;SDS011;10097;50.862;4.696;2023-02-04T07:59:28;36.80;;;13.33;;
19869;SDS011;10097;50.862;4.696;2023-02-04T08:01:54;37.13;;;12.63;;
19869;SDS011;10097;50.862;4.696;2023-02-04T08:04:19;33.43;;;12.80;;
19869;SDS011;10097;50.862;4.696;2023-02-04T08:06:45;30.20;;;11.53;;
19869;SDS011;10097;50.862;4.696;2023-02-04T08:09:11;31.30;;;12.13;;
19869;SDS011;10097;50.862;4.696;2023-02-04T08:11:36;36.80;;;12.97;;
19869;SDS011;10097;50.862;4.696;2023-02-04T08:14:02;33.23;;;12.30;;
19869;SDS011;10097;50.862;4.696;2023-02-04T08:16:30;27.80;;;10.67;;
19869;SDS011;10097;50.862;4.696;2023-02-04T08:18:56;33.83;;;12.23;;
19869;SDS011;10097;50.862;4.696;2023-02-04T08:21:22;36.73;;;12.43;;
19869;SDS011;10097;50.862;4.696;2023-02-04T08:23:47;34.83;;;11.27;;
19869;SDS011;10097;50.862;4.696;2023-02-04T08:26:13;30.77;;;11.27;;
19869;SDS011;10097;50.862;4.696;2023-02-04T08:28:39;32.70;;;11.43;;
19869;SDS011;10097;50.862;4.696;2023-02-04T08:31:05;31.43;;;11.53;;
19869;SDS011;10097;50.862;4.696;2023-02-04T08:33:31;36.73;;;11.50;;
19869;SDS011;10097;50.862;4.696;2023-02-04T08:35:56;29.53;;;11.37;;
19869;SDS011;10097;50.862;4.696;2023-02-04T08:38:22;27.47;;;11.07;;
19869;SDS011;10097;50.862;4.696;2023-02-04T08:40:48;28.37;;;10.60;;
19869;SDS011;10097;50.862;4.696;2023-02-04T08:43:13;26.43;;;9.83;;
19869;SDS011;10097;50.862;4.696;2023-02-04T08:45:39;27.10;;;9.90;;
19869;SDS011;10097;50.862;4.696;2023-02-04T08:48:05;27.20;;;9.13;;
19869;SDS011;10097;50.862;4.696;2023-02-04T08:50:31;32.20;;;10.10;;
19869;SDS011;10097;50.862;4.696;2023-02-04T08:52:57;24.77;;;9.17;;
19869;SDS011;10097;50.862;4.696;2023-02-04T08:55:23;26.37;;;8.70;;
19869;SDS011;10097;50.862;4.696;2023-02-04T08:57:48;22.13;;;9.07;;
19869;SDS011;10097;50.862;4.696;2023-02-04T09:00:14;28.17;;;8.90;;
19869;SDS011;10097;50.862;4.696;2023-02-04T09:02:40;22.37;;;8.57;;
19869;SDS011;10097;50.862;4.696;2023-02-04T09:05:05;21.33;;;7.77;;
19869;SDS011;10097;50.862;4.696;2023-02-04T09:07:31;20.77;;;7.70;;
19869;SDS011;10097;50.862;4.696;2023-02-04T09:09:57;22.27;;;7.13;;
19869;SDS011;10097;50.862;4.696;2023-02-04T09:12:23;24.03;;;8.60;;
19869;SDS011;10097;50.862;4.696;2023-02-04T09:14:48;25.30;;;6.97;;
19869;SDS011;10097;50.862;4.696;2023-02-04T09:17:14;20.37;;;6.97;;
19869;SDS011;10097;50.862;4.696;2023-02-04T09:19:40;25.47;;;8.10;;
19869;SDS011;10097;50.862;4.696;2023-02-04T09:22:05;23.23;;;7.53;;
19869;SDS011;10097;50.862;4.696;2023-02-04T09:24:31;23.03;;;7.10;;
19869;SDS011;10097;50.862;4.696;2023-02-04T09:26:56;24.10;;;7.27;;
19869;SDS011;10097;50.862;4.696;2023-02-04T09:29:22;20.27;;;7.20;;
19869;SDS011;10097;50.862;4.696;2023-02-04T09:31:48;19.60;;;7.60;;
19869;SDS011;10097;50.862;4.696;2023-02-04T09:34:13;20.30;;;6.90;;
19869;SDS011;10097;50.862;4.696;2023-02-04T09:36:39;21.07;;;7.50;;
19869;SDS011;10097;50.862;4.696;2023-02-04T09:39:05;20.50;;;8.33;;
19869;SDS011;10097;50.862;4.696;2023-02-04T09:41:33;19.10;;;7.33;;
19869;SDS011;10097;50.862;4.696;2023-02-04T09:43:59;20.87;;;7.67;;
19869;SDS011;10097;50.862;4.696;2023-02-04T09:46:25;18.73;;;6.87;;
19869;SDS011;10097;50.862;4.696;2023-02-04T09:48:54;20.00;;;6.67;;
19869;SDS011;10097;50.862;4.696;2023-02-04T09:51:23;17.17;;;7.67;;
19869;SDS011;10097;50.862;4.696;2023-02-04T09:53:51;20.07;;;7.47;;
19869;SDS011;10097;50.862;4.696;2023-02-04T09:56:19;24.57;;;7.40;;
19869;SDS011;10097;50.862;4.696;2023-02-04T09:58:45;19.33;;;7.27;;
19869;SDS011;10097;50.862;4.696;2023-02-04T10:01:13;22.13;;;7.93;;
19869;SDS011;10097;50.862;4.696;2023-02-04T10:03:40;24.17;;;8.63;;
19869;SDS011;10097;50.862;4.696;2023-02-04T10:06:15;19.33;;;7.40;;
19869;SDS011;10097;50.862;4.696;2023-02-04T10:08:42;22.00;;;8.33;;
19869;SDS011;10097;50.862;4.696;2023-02-04T10:11:09;21.90;;;9.13;;
19869;SDS011;10097;50.862;4.696;2023-02-04T10:13:37;25.07;;;9.37;;
19869;SDS011;10097;50.862;4.696;2023-02-04T10:16:14;23.70;;;9.50;;
19869;SDS011;10097;50.862;4.696;2023-02-04T10:19:04;21.43;;;9.93;;
19869;SDS011;10097;50.862;4.696;2023-02-04T10:21:33;24.40;;;9.83;;
19869;SDS011;10097;50.862;4.696;2023-02-04T10:24:01;17.80;;;9.03;;
19869;SDS011;10097;50.862;4.696;2023-02-04T10:26:30;25.73;;;9.93;;
19869;SDS011;10097;50.862;4.696;2023-02-04T10:28:57;19.47;;;9.07;;
19869;SDS011;10097;50.862;4.696;2023-02-04T10:31:26;19.27;;;8.27;;
19869;SDS011;10097;50.862;4.696;2023-02-04T10:34:01;18.43;;;7.60;;
19869;SDS011;10097;50.862;4.696;2023-02-04T10:36:28;18.37;;;7.67;;
19869;SDS011;10097;50.862;4.696;2023-02-04T10:39:04;19.07;;;7.93;;
19869;SDS011;10097;50.862;4.696;2023-02-04T10:41:35;19.73;;;8.27;;
19869;SDS011;10097;50.862;4.696;2023-02-04T10:44:07;15.83;;;7.93;;
19869;SDS011;10097;50.862;4.696;2023-02-04T10:46:35;13.97;;;7.47;;
19869;SDS011;10097;50.862;4.696;2023-02-04T10:49:12;17.77;;;8.17;;
19869;SDS011;10097;50.862;4.696;2023-02-04T10:51:42;15.23;;;7.47;;
19869;SDS011;10097;50.862;4.696;2023-02-04T10:54:09;19.03;;;8.17;;
19869;SDS011;10097;50.862;4.696;2023-02-04T10:56:59;15.07;;;7.70;;
19869;SDS011;10097;50.862;4.696;2023-02-04T10:59:25;16.17;;;7.53;;
19869;SDS011;10097;50.862;4.696;2023-02-04T11:01:54;14.70;;;6.53;;
19869;SDS011;10097;50.862;4.696;2023-02-04T11:04:21;14.93;;;7.03;;
19869;SDS011;10097;50.862;4.696;2023-02-04T11:06:47;14.70;;;6.07;;
19869;SDS011;10097;50.862;4.696;2023-02-04T11:09:13;15.13;;;5.97;;
19869;SDS011;10097;50.862;4.696;2023-02-04T11:11:44;15.47;;;6.07;;
19869;SDS011;10097;50.862;4.696;2023-02-04T11:16:53;9.00;;;4.13;;
19869;SDS011;10097;50.862;4.696;2023-02-04T11:19:37;7.80;;;3.43;;
19869;SDS011;10097;50.862;4.696;2023-02-04T11:22:20;6.63;;;2.43;;
19869;SDS011;10097;50.862;4.696;2023-02-04T11:25:02;6.13;;;2.70;;
19869;SDS011;10097;50.862;4.696;2023-02-04T11:27:38;7.13;;;3.20;;
19869;SDS011;10097;50.862;4.696;2023-02-04T11:30:18;8.73;;;3.50;;
19869;SDS011;10097;50.862;4.696;2023-02-04T11:32:54;5.70;;;2.70;;
19869;SDS011;10097;50.862;4.696;2023-02-04T11:35:26;6.83;;;2.83;;
19869;SDS011;10097;50.862;4.696;2023-02-04T11:37:53;8.20;;;2.73;;
19869;SDS011;10097;50.862;4.696;2023-02-04T11:40:22;8.07;;;2.37;;
19869;SDS011;10097;50.862;4.696;2023-02-04T11:43:00;6.90;;;2.73;;
19869;SDS011;10097;50.862;4.696;2023-02-04T11:45:39;5.47;;;2.50;;
19869;SDS011;10097;50.862;4.696;2023-02-04T11:48:18;6.10;;;2.80;;
19869;SDS011;10097;50.862;4.696;2023-02-04T11:50:55;7.10;;;2.70;;
19869;SDS011;10097;50.862;4.696;2023-02-04T11:53:23;5.60;;;2.57;;
19869;SDS011;10097;50.862;4.696;2023-02-04T11:55:53;8.43;;;2.40;;
19869;SDS011;10097;50.862;4.696;2023-02-04T11:58:19;10.27;;;2.43;;
19869;SDS011;10097;50.862;4.696;2023-02-04T12:00:46;5.03;;;2.00;;
19869;SDS011;10097;50.862;4.696;2023-02-04T12:03:20;4.77;;;2.20;;
19869;SDS011;10097;50.862;4.696;2023-02-04T12:05:45;3.07;;;1.73;;
19869;SDS011;10097;50.862;4.696;2023-02-04T12:11:32;3.87;;;1.63;;
19869;SDS011;10097;50.862;4.696;2023-02-04T12:13:49;5.13;;;1.77;;
19869;SDS011;10097;50.862;4.696;2023-02-04T12:16:17;4.97;;;1.40;;
19869;SDS011;10097;50.862;4.696;2023-02-04T12:18:43;2.30;;;1.27;;
19869;SDS011;10097;50.862;4.696;2023-02-04T12:21:09;3.83;;;1.40;;
19869;SDS011;10097;50.862;4.696;2023-02-04T12:23:34;3.43;;;1.30;;
19869;SDS011;10097;50.862;4.696;2023-02-04T12:26:00;5.03;;;1.50;;
19869;SDS011;10097;50.862;4.696;2023-02-04T12:28:26;1.97;;;0.97;;
19869;SDS011;10097;50.862;4.696;2023-02-04T12:30:52;3.70;;;1.30;;
19869;SDS011;10097;50.862;4.696;2023-02-04T12:33:18;2.70;;;1.40;;
19869;SDS011;10097;50.862;4.696;2023-02-04T12:35:46;3.63;;;1.57;;
19869;SDS011;10097;50.862;4.696;2023-02-04T12:38:12;4.77;;;1.90;;
19869;SDS011;10097;50.862;4.696;2023-02-04T12:40:38;6.17;;;2.60;;
19869;SDS011;10097;50.862;4.696;2023-02-04T12:43:04;5.30;;;2.30;;
19869;SDS011;10097;50.862;4.696;2023-02-04T12:45:30;5.23;;;2.10;;
19869;SDS011;10097;50.862;4.696;2023-02-04T12:47:56;5.17;;;2.20;;
19869;SDS011;10097;50.862;4.696;2023-02-04T12:50:21;6.80;;;2.73;;
19869;SDS011;10097;50.862;4.696;2023-02-04T12:52:51;5.10;;;2.17;;
19869;SDS011;10097;50.862;4.696;2023-02-04T12:55:18;4.13;;;2.07;;
19869;SDS011;10097;50.862;4.696;2023-02-04T12:57:45;4.07;;;2.17;;
19869;SDS011;10097;50.862;4.696;2023-02-04T13:00:11;6.37;;;2.37;;
19869;SDS011;10097;50.862;4.696;2023-02-04T13:02:38;4.75;;;2.78;;
19869;SDS011;10097;50.862;4.696;2023-02-04T13:05:07;4.53;;;2.37;;
19869;SDS011;10097;50.862;4.696;2023-02-04T13:07:33;5.83;;;2.53;;
19869;SDS011;10097;50.862;4.696;2023-02-04T13:09:59;4.50;;;2.27;;
19869;SDS011;10097;50.862;4.696;2023-02-04T13:12:24;6.70;;;3.15;;
19869;SDS011;10097;50.862;4.696;2023-02-04T13:14:50;6.20;;;2.70;;
19869;SDS011;10097;50.862;4.696;2023-02-04T13:17:16;4.30;;;2.20;;
19869;SDS011;10097;50.862;4.696;2023-02-04T13:19:42;6.30;;;2.60;;
19869;SDS011;10097;50.862;4.696;2023-02-04T13:22:08;7.17;;;2.87;;
19869;SDS011;10097;50.862;4.696;2023-02-04T13:24:33;7.50;;;2.70;;
19869;SDS011;10097;50.862;4.696;2023-02-04T13:26:59;6.07;;;2.93;;
19869;SDS011;10097;50.862;4.696;2023-02-04T13:29:25;5.80;;;2.57;;
19869;SDS011;10097;50.862;4.696;2023-02-04T13:31:51;5.67;;;2.67;;
19869;SDS011;10097;50.862;4.696;2023-02-04T13:34:17;7.13;;;2.90;;
19869;SDS011;10097;50.862;4.696;2023-02-04T13:36:42;6.47;;;3.03;;
19869;SDS011;10097;50.862;4.696;2023-02-04T13:39:08;8.53;;;2.97;;
19869;SDS011;10097;50.862;4.696;2023-02-04T13:41:35;5.57;;;2.90;;
19869;SDS011;10097;50.862;4.696;2023-02-04T13:44:01;6.87;;;3.10;;
19869;SDS011;10097;50.862;4.696;2023-02-04T13:46:27;7.10;;;3.50;;
19869;SDS011;10097;50.862;4.696;2023-02-04T13:48:53;8.90;;;3.70;;
19869;SDS011;10097;50.862;4.696;2023-02-04T13:51:18;8.80;;;4.03;;
19869;SDS011;10097;50.862;4.696;2023-02-04T13:53:44;10.23;;;4.17;;
19869;SDS011;10097;50.862;4.696;2023-02-04T13:56:10;9.37;;;4.40;;
19869;SDS011;10097;50.862;4.696;2023-02-04T13:58:35;10.23;;;4.83;;
19869;SDS011;10097;50.862;4.696;2023-02-04T14:01:01;9.03;;;4.27;;
19869;SDS011;10097;50.862;4.696;2023-02-04T14:03:27;10.73;;;4.10;;
19869;SDS011;10097;50.862;4.696;2023-02-04T14:05:54;8.87;;;4.50;;
19869;SDS011;10097;50.862;4.696;2023-02-04T14:08:20;11.57;;;4.50;;
19869;SDS011;10097;50.862;4.696;2023-02-04T14:10:47;11.27;;;4.13;;
19869;SDS011;10097;50.862;4.696;2023-02-04T14:13:13;10.60;;;4.50;;
19869;SDS011;10097;50.862;4.696;2023-02-04T14:15:38;12.87;;;4.67;;
19869;SDS011;10097;50.862;4.696;2023-02-04T14:18:07;10.73;;;4.50;;
19869;SDS011;10097;50.862;4.696;2023-02-04T14:20:36;12.27;;;4.93;;
19869;SDS011;10097;50.862;4.696;2023-02-04T14:23:03;11.27;;;4.80;;
19869;SDS011;10097;50.862;4.696;2023-02-04T14:25:29;12.43;;;4.70;;
19869;SDS011;10097;50.862;4.696;2023-02-04T14:27:55;12.13;;;4.70;;
19869;SDS011;10097;50.862;4.696;2023-02-04T14:30:22;12.53;;;5.30;;
19869;SDS011;10097;50.862;4.696;2023-02-04T14:32:49;13.83;;;5.80;;
19869;SDS011;10097;50.862;4.696;2023-02-04T14:35:15;11.47;;;5.70;;
19869;SDS011;10097;50.862;4.696;2023-02-04T14:37:41;12.57;;;5.70;;
19869;SDS011;10097;50.862;4.696;2023-02-04T14:40:07;14.03;;;5.90;;